sensor_id;sensor_type;location;lat;lon;timestamp;P1;durP1;ratioP1;P2;durP2;ratioP2
70406;SDS011;57821;52.202;0.154;2023-04-08T00:02:35;15.18;;;7.22;;
70406;SDS011;57821;52.202;0.154;2023-04-08T00:05:22;16.08;;;6.63;;
70406;SDS011;57821;52.202;0.154;2023-04-08T00:08:08;15.35;;;6.50;;
70406;SDS011;57821;52.202;0.154;2023-04-08T00:10:55;11.35;;;6.60;;
70406;SDS011;57821;52.202;0.154;2023-04-08T00:13:42;16.42;;;7.28;;
70406;SDS011;57821;52.202;0.154;2023-04-08T00:16:29;17.67;;;7.25;;
70406;SDS011;57821;52.202;0.154;2023-04-08T00:19:16;14.50;;;7.15;;
70406;SDS011;57821;52.202;0.154;2023-04-08T00:22:03;16.92;;;7.55;;
70406;SDS011;57821;52.202;0.154;2023-04-08T00:24:50;12.73;;;6.10;;
70406;SDS011;57821;52.202;0.154;2023-04-08T00:27:37;13.98;;;7.43;;
70406;SDS011;57821;52.202;0.154;2023-04-08T00:30:24;19.88;;;7.55;;
70406;SDS011;57821;52.202;0.154;2023-04-08T00:33:11;12.93;;;7.15;;
70406;SDS011;57821;52.202;0.154;2023-04-08T00:35:58;18.77;;;7.88;;
70406;SDS011;57821;52.202;0.154;2023-04-08T00:38:45;15.27;;;6.80;;
70406;SDS011;57821;52.202;0.154;2023-04-08T00:41:35;14.93;;;7.13;;
70406;SDS011;57821;52.202;0.154;2023-04-08T00:44:21;14.85;;;7.28;;
70406;SDS011;57821;52.202;0.154;2023-04-08T00:47:12;14.07;;;6.82;;
70406;SDS011;57821;52.202;0.154;2023-04-08T00:49:59;11.35;;;6.47;;
70406;SDS011;57821;52.202;0.154;2023-04-08T00:52:46;13.63;;;7.10;;
70406;SDS011;57821;52.202;0.154;2023-04-08T00:55:33;14.40;;;7.22;;
70406;SDS011;57821;52.202;0.154;2023-04-08T00:58:21;16.38;;;6.95;;
70406;SDS011;57821;52.202;0.154;2023-04-08T01:01:13;17.10;;;7.30;;
70406;SDS011;57821;52.202;0.154;2023-04-08T01:04:23;15.32;;;8.05;;
70406;SDS011;57821;52.202;0.154;2023-04-08T01:07:24;15.18;;;7.30;;
70406;SDS011;57821;52.202;0.154;2023-04-08T01:10:26;13.05;;;6.65;;
70406;SDS011;57821;52.202;0.154;2023-04-08T01:13:17;20.70;;;6.85;;
70406;SDS011;57821;52.202;0.154;2023-04-08T01:16:11;15.02;;;7.13;;
70406;SDS011;57821;52.202;0.154;2023-04-08T01:19:01;16.10;;;7.07;;
70406;SDS011;57821;52.202;0.154;2023-04-08T01:21:49;13.48;;;6.90;;
70406;SDS011;57821;52.202;0.154;2023-04-08T01:24:38;16.77;;;7.40;;
70406;SDS011;57821;52.202;0.154;2023-04-08T01:27:29;12.50;;;6.82;;
70406;SDS011;57821;52.202;0.154;2023-04-08T01:30:19;14.65;;;6.85;;
70406;SDS011;57821;52.202;0.154;2023-04-08T01:33:07;13.77;;;7.22;;
70406;SDS011;57821;52.202;0.154;2023-04-08T01:35:57;15.75;;;6.97;;
70406;SDS011;57821;52.202;0.154;2023-04-08T01:38:47;13.63;;;6.90;;
70406;SDS011;57821;52.202;0.154;2023-04-08T01:41:36;16.55;;;6.78;;
70406;SDS011;57821;52.202;0.154;2023-04-08T01:44:23;12.02;;;7.10;;
70406;SDS011;57821;52.202;0.154;2023-04-08T01:47:12;15.40;;;7.13;;
70406;SDS011;57821;52.202;0.154;2023-04-08T01:50:00;15.18;;;7.07;;
70406;SDS011;57821;52.202;0.154;2023-04-08T01:52:48;15.65;;;6.60;;
70406;SDS011;57821;52.202;0.154;2023-04-08T01:55:36;14.85;;;6.78;;
70406;SDS011;57821;52.202;0.154;2023-04-08T01:58:25;14.98;;;7.22;;
70406;SDS011;57821;52.202;0.154;2023-04-08T02:01:17;15.05;;;6.40;;
70406;SDS011;57821;52.202;0.154;2023-04-08T02:04:08;15.98;;;7.18;;
70406;SDS011;57821;52.202;0.154;2023-04-08T02:06:55;19.90;;;7.30;;
70406;SDS011;57821;52.202;0.154;2023-04-08T02:09:43;17.65;;;7.30;;
70406;SDS011;57821;52.202;0.154;2023-04-08T02:12:30;17.40;;;7.53;;
70406;SDS011;57821;52.202;0.154;2023-04-08T02:15:18;20.55;;;7.68;;
70406;SDS011;57821;52.202;0.154;2023-04-08T02:18:12;17.52;;;6.78;;
70406;SDS011;57821;52.202;0.154;2023-04-08T02:21:39;14.65;;;6.95;;
70406;SDS011;57821;52.202;0.154;2023-04-08T02:24:19;27.60;;;8.45;;
70406;SDS011;57821;52.202;0.154;2023-04-08T02:27:07;22.45;;;9.43;;
70406;SDS011;57821;52.202;0.154;2023-04-08T02:29:56;14.75;;;7.25;;
70406;SDS011;57821;52.202;0.154;2023-04-08T02:32:45;12.95;;;7.18;;
70406;SDS011;57821;52.202;0.154;2023-04-08T02:35:33;15.32;;;6.97;;
70406;SDS011;57821;52.202;0.154;2023-04-08T02:38:21;18.25;;;6.90;;
70406;SDS011;57821;52.202;0.154;2023-04-08T02:41:08;16.00;;;7.70;;
70406;SDS011;57821;52.202;0.154;2023-04-08T02:43:55;21.52;;;7.38;;
70406;SDS011;57821;52.202;0.154;2023-04-08T02:46:42;16.95;;;7.70;;
70406;SDS011;57821;52.202;0.154;2023-04-08T02:49:29;17.40;;;7.32;;
70406;SDS011;57821;52.202;0.154;2023-04-08T02:52:16;19.60;;;7.68;;
70406;SDS011;57821;52.202;0.154;2023-04-08T02:55:03;17.90;;;7.97;;
70406;SDS011;57821;52.202;0.154;2023-04-08T02:57:50;19.25;;;8.23;;
70406;SDS011;57821;52.202;0.154;2023-04-08T03:00:37;17.88;;;6.60;;
70406;SDS011;57821;52.202;0.154;2023-04-08T03:03:24;16.50;;;7.72;;
70406;SDS011;57821;52.202;0.154;2023-04-08T03:06:11;15.77;;;7.50;;
70406;SDS011;57821;52.202;0.154;2023-04-08T03:08:58;13.63;;;6.72;;
70406;SDS011;57821;52.202;0.154;2023-04-08T03:11:44;13.45;;;6.97;;
70406;SDS011;57821;52.202;0.154;2023-04-08T03:14:31;14.05;;;6.80;;
70406;SDS011;57821;52.202;0.154;2023-04-08T03:17:18;13.20;;;6.50;;
70406;SDS011;57821;52.202;0.154;2023-04-08T03:20:05;17.02;;;6.97;;
70406;SDS011;57821;52.202;0.154;2023-04-08T03:22:53;19.08;;;6.30;;
70406;SDS011;57821;52.202;0.154;2023-04-08T03:25:39;11.70;;;5.90;;
70406;SDS011;57821;52.202;0.154;2023-04-08T03:28:26;16.50;;;6.10;;
70406;SDS011;57821;52.202;0.154;2023-04-08T03:31:13;14.07;;;5.97;;
70406;SDS011;57821;52.202;0.154;2023-04-08T03:34:00;20.20;;;5.53;;
70406;SDS011;57821;52.202;0.154;2023-04-08T03:39:53;12.00;;;5.80;;
70406;SDS011;57821;52.202;0.154;2023-04-08T03:42:40;14.10;;;6.38;;
70406;SDS011;57821;52.202;0.154;2023-04-08T03:45:27;16.08;;;6.47;;
70406;SDS011;57821;52.202;0.154;2023-04-08T03:48:14;16.05;;;7.10;;
70406;SDS011;57821;52.202;0.154;2023-04-08T03:51:00;15.52;;;6.20;;
70406;SDS011;57821;52.202;0.154;2023-04-08T03:53:47;14.85;;;6.53;;
70406;SDS011;57821;52.202;0.154;2023-04-08T03:56:34;15.38;;;6.85;;
70406;SDS011;57821;52.202;0.154;2023-04-08T03:59:21;17.38;;;6.40;;
70406;SDS011;57821;52.202;0.154;2023-04-08T04:02:08;13.95;;;6.88;;
70406;SDS011;57821;52.202;0.154;2023-04-08T04:04:55;13.93;;;6.43;;
70406;SDS011;57821;52.202;0.154;2023-04-08T04:07:42;18.63;;;6.75;;
70406;SDS011;57821;52.202;0.154;2023-04-08T04:10:29;13.88;;;6.20;;
70406;SDS011;57821;52.202;0.154;2023-04-08T04:13:16;14.32;;;7.30;;
70406;SDS011;57821;52.202;0.154;2023-04-08T04:16:03;14.15;;;7.57;;
70406;SDS011;57821;52.202;0.154;2023-04-08T04:18:51;15.02;;;7.32;;
70406;SDS011;57821;52.202;0.154;2023-04-08T04:21:38;17.90;;;7.78;;
70406;SDS011;57821;52.202;0.154;2023-04-08T04:24:25;14.23;;;7.45;;
70406;SDS011;57821;52.202;0.154;2023-04-08T04:27:12;17.40;;;7.53;;
70406;SDS011;57821;52.202;0.154;2023-04-08T04:29:59;16.88;;;7.35;;
70406;SDS011;57821;52.202;0.154;2023-04-08T04:32:46;14.05;;;7.20;;
70406;SDS011;57821;52.202;0.154;2023-04-08T04:35:33;15.73;;;7.30;;
70406;SDS011;57821;52.202;0.154;2023-04-08T04:38:20;18.77;;;7.72;;
70406;SDS011;57821;52.202;0.154;2023-04-08T04:41:07;16.85;;;7.07;;
70406;SDS011;57821;52.202;0.154;2023-04-08T04:43:54;17.80;;;7.82;;
70406;SDS011;57821;52.202;0.154;2023-04-08T04:46:41;16.17;;;8.27;;
70406;SDS011;57821;52.202;0.154;2023-04-08T04:49:28;14.57;;;7.60;;
70406;SDS011;57821;52.202;0.154;2023-04-08T04:52:15;18.65;;;7.85;;
70406;SDS011;57821;52.202;0.154;2023-04-08T04:55:02;18.85;;;8.02;;
70406;SDS011;57821;52.202;0.154;2023-04-08T04:57:49;15.02;;;7.53;;
70406;SDS011;57821;52.202;0.154;2023-04-08T05:00:35;15.85;;;7.47;;
70406;SDS011;57821;52.202;0.154;2023-04-08T05:03:22;16.88;;;6.88;;
70406;SDS011;57821;52.202;0.154;2023-04-08T05:06:09;16.45;;;8.00;;
70406;SDS011;57821;52.202;0.154;2023-04-08T05:08:56;18.58;;;7.47;;
70406;SDS011;57821;52.202;0.154;2023-04-08T05:11:43;20.40;;;7.90;;
70406;SDS011;57821;52.202;0.154;2023-04-08T05:14:30;14.57;;;7.45;;
70406;SDS011;57821;52.202;0.154;2023-04-08T05:17:16;13.32;;;6.40;;
70406;SDS011;57821;52.202;0.154;2023-04-08T05:20:03;15.38;;;7.20;;
70406;SDS011;57821;52.202;0.154;2023-04-08T05:22:50;15.18;;;7.75;;
70406;SDS011;57821;52.202;0.154;2023-04-08T05:25:37;15.52;;;7.35;;
70406;SDS011;57821;52.202;0.154;2023-04-08T05:28:24;14.00;;;7.20;;
70406;SDS011;57821;52.202;0.154;2023-04-08T05:31:11;13.55;;;7.43;;
70406;SDS011;57821;52.202;0.154;2023-04-08T05:33:58;14.77;;;7.63;;
70406;SDS011;57821;52.202;0.154;2023-04-08T05:36:45;16.77;;;7.65;;
70406;SDS011;57821;52.202;0.154;2023-04-08T05:39:31;15.85;;;7.68;;
70406;SDS011;57821;52.202;0.154;2023-04-08T05:42:18;17.63;;;7.60;;
70406;SDS011;57821;52.202;0.154;2023-04-08T05:45:05;16.65;;;8.57;;
70406;SDS011;57821;52.202;0.154;2023-04-08T05:47:52;21.27;;;9.48;;
70406;SDS011;57821;52.202;0.154;2023-04-08T05:50:39;13.93;;;7.20;;
70406;SDS011;57821;52.202;0.154;2023-04-08T05:53:26;12.68;;;6.90;;
70406;SDS011;57821;52.202;0.154;2023-04-08T05:56:13;14.00;;;7.68;;
70406;SDS011;57821;52.202;0.154;2023-04-08T05:59:00;14.30;;;7.10;;
70406;SDS011;57821;52.202;0.154;2023-04-08T06:01:47;13.75;;;7.68;;
70406;SDS011;57821;52.202;0.154;2023-04-08T06:04:34;17.38;;;7.55;;
70406;SDS011;57821;52.202;0.154;2023-04-08T06:07:21;16.60;;;7.80;;
70406;SDS011;57821;52.202;0.154;2023-04-08T06:10:08;16.15;;;7.90;;
70406;SDS011;57821;52.202;0.154;2023-04-08T06:12:55;15.32;;;7.03;;
70406;SDS011;57821;52.202;0.154;2023-04-08T06:15:42;14.52;;;7.32;;
70406;SDS011;57821;52.202;0.154;2023-04-08T06:18:29;13.98;;;7.57;;
70406;SDS011;57821;52.202;0.154;2023-04-08T06:21:16;17.35;;;8.07;;
70406;SDS011;57821;52.202;0.154;2023-04-08T06:24:03;18.10;;;8.38;;
70406;SDS011;57821;52.202;0.154;2023-04-08T06:26:49;21.63;;;9.18;;
70406;SDS011;57821;52.202;0.154;2023-04-08T06:29:36;18.30;;;8.38;;
70406;SDS011;57821;52.202;0.154;2023-04-08T06:32:23;19.15;;;8.70;;
70406;SDS011;57821;52.202;0.154;2023-04-08T06:35:10;18.90;;;9.18;;
70406;SDS011;57821;52.202;0.154;2023-04-08T06:37:57;22.38;;;10.00;;
70406;SDS011;57821;52.202;0.154;2023-04-08T06:40:43;21.50;;;10.52;;
70406;SDS011;57821;52.202;0.154;2023-04-08T06:43:30;25.77;;;10.18;;
70406;SDS011;57821;52.202;0.154;2023-04-08T06:46:18;19.25;;;9.10;;
70406;SDS011;57821;52.202;0.154;2023-04-08T06:49:05;20.50;;;9.90;;
70406;SDS011;57821;52.202;0.154;2023-04-08T06:51:52;24.95;;;10.57;;
70406;SDS011;57821;52.202;0.154;2023-04-08T06:54:39;23.60;;;11.02;;
70406;SDS011;57821;52.202;0.154;2023-04-08T06:57:25;24.23;;;11.70;;
70406;SDS011;57821;52.202;0.154;2023-04-08T07:00:12;21.33;;;10.00;;
70406;SDS011;57821;52.202;0.154;2023-04-08T07:03:00;27.00;;;12.75;;
70406;SDS011;57821;52.202;0.154;2023-04-08T07:05:47;23.98;;;12.15;;
70406;SDS011;57821;52.202;0.154;2023-04-08T07:08:34;24.60;;;12.30;;
70406;SDS011;57821;52.202;0.154;2023-04-08T07:11:20;25.65;;;10.68;;
70406;SDS011;57821;52.202;0.154;2023-04-08T07:14:07;24.52;;;11.73;;
70406;SDS011;57821;52.202;0.154;2023-04-08T07:16:54;20.98;;;10.52;;
70406;SDS011;57821;52.202;0.154;2023-04-08T07:19:41;20.55;;;10.15;;
70406;SDS011;57821;52.202;0.154;2023-04-08T07:22:28;21.48;;;9.75;;
70406;SDS011;57821;52.202;0.154;2023-04-08T07:25:15;25.35;;;10.43;;
70406;SDS011;57821;52.202;0.154;2023-04-08T07:28:02;20.17;;;10.57;;
70406;SDS011;57821;52.202;0.154;2023-04-08T07:30:48;22.45;;;11.10;;
70406;SDS011;57821;52.202;0.154;2023-04-08T07:33:35;22.00;;;10.45;;
70406;SDS011;57821;52.202;0.154;2023-04-08T07:36:22;22.33;;;9.65;;
70406;SDS011;57821;52.202;0.154;2023-04-08T07:39:09;22.42;;;11.07;;
70406;SDS011;57821;52.202;0.154;2023-04-08T07:41:56;30.20;;;12.52;;
70406;SDS011;57821;52.202;0.154;2023-04-08T07:44:43;19.92;;;10.07;;
70406;SDS011;57821;52.202;0.154;2023-04-08T07:47:31;19.98;;;9.60;;
70406;SDS011;57821;52.202;0.154;2023-04-08T07:50:18;19.52;;;9.43;;
70406;SDS011;57821;52.202;0.154;2023-04-08T07:53:05;18.70;;;9.10;;
70406;SDS011;57821;52.202;0.154;2023-04-08T07:55:53;24.73;;;9.98;;
70406;SDS011;57821;52.202;0.154;2023-04-08T07:58:40;23.00;;;8.65;;
70406;SDS011;57821;52.202;0.154;2023-04-08T08:01:28;27.02;;;10.05;;
70406;SDS011;57821;52.202;0.154;2023-04-08T08:04:15;18.75;;;9.07;;
70406;SDS011;57821;52.202;0.154;2023-04-08T08:07:02;17.83;;;8.07;;
70406;SDS011;57821;52.202;0.154;2023-04-08T08:09:49;16.30;;;8.60;;
70406;SDS011;57821;52.202;0.154;2023-04-08T08:12:36;17.02;;;7.97;;
70406;SDS011;57821;52.202;0.154;2023-04-08T08:15:23;20.23;;;8.18;;
70406;SDS011;57821;52.202;0.154;2023-04-08T08:18:09;20.35;;;7.93;;
70406;SDS011;57821;52.202;0.154;2023-04-08T08:20:57;20.25;;;9.93;;
70406;SDS011;57821;52.202;0.154;2023-04-08T08:23:43;21.23;;;8.10;;
70406;SDS011;57821;52.202;0.154;2023-04-08T08:26:30;17.05;;;8.02;;
70406;SDS011;57821;52.202;0.154;2023-04-08T08:29:17;19.17;;;8.27;;
70406;SDS011;57821;52.202;0.154;2023-04-08T08:32:04;18.50;;;8.57;;
70406;SDS011;57821;52.202;0.154;2023-04-08T08:34:51;14.30;;;7.53;;
70406;SDS011;57821;52.202;0.154;2023-04-08T08:37:37;15.57;;;7.63;;
70406;SDS011;57821;52.202;0.154;2023-04-08T08:40:24;16.38;;;8.15;;
70406;SDS011;57821;52.202;0.154;2023-04-08T08:43:11;17.25;;;8.43;;
70406;SDS011;57821;52.202;0.154;2023-04-08T08:45:59;16.15;;;7.68;;
70406;SDS011;57821;52.202;0.154;2023-04-08T08:48:46;18.00;;;8.38;;
70406;SDS011;57821;52.202;0.154;2023-04-08T08:51:33;13.02;;;7.07;;
70406;SDS011;57821;52.202;0.154;2023-04-08T08:54:19;16.58;;;7.45;;
70406;SDS011;57821;52.202;0.154;2023-04-08T08:57:15;11.48;;;6.80;;
70406;SDS011;57821;52.202;0.154;2023-04-08T09:00:03;12.93;;;7.85;;
70406;SDS011;57821;52.202;0.154;2023-04-08T09:02:50;18.15;;;7.70;;
70406;SDS011;57821;52.202;0.154;2023-04-08T09:05:53;15.93;;;7.57;;
70406;SDS011;57821;52.202;0.154;2023-04-08T09:08:40;14.82;;;7.82;;
70406;SDS011;57821;52.202;0.154;2023-04-08T09:11:27;14.57;;;7.47;;
70406;SDS011;57821;52.202;0.154;2023-04-08T09:14:17;16.30;;;7.60;;
70406;SDS011;57821;52.202;0.154;2023-04-08T09:17:04;16.35;;;7.97;;
70406;SDS011;57821;52.202;0.154;2023-04-08T09:20:04;12.55;;;7.22;;
70406;SDS011;57821;52.202;0.154;2023-04-08T09:22:55;13.68;;;7.50;;
70406;SDS011;57821;52.202;0.154;2023-04-08T09:25:42;14.95;;;7.10;;
70406;SDS011;57821;52.202;0.154;2023-04-08T09:28:29;18.40;;;6.95;;
70406;SDS011;57821;52.202;0.154;2023-04-08T09:31:19;12.90;;;6.50;;
70406;SDS011;57821;52.202;0.154;2023-04-08T09:34:11;15.43;;;6.88;;
70406;SDS011;57821;52.202;0.154;2023-04-08T09:37:02;15.50;;;7.28;;
70406;SDS011;57821;52.202;0.154;2023-04-08T09:39:49;12.55;;;7.78;;
70406;SDS011;57821;52.202;0.154;2023-04-08T09:42:37;14.02;;;6.60;;
70406;SDS011;57821;52.202;0.154;2023-04-08T09:45:26;13.52;;;6.57;;
70406;SDS011;57821;52.202;0.154;2023-04-08T09:48:16;11.27;;;5.78;;
70406;SDS011;57821;52.202;0.154;2023-04-08T09:51:07;15.73;;;6.18;;
70406;SDS011;57821;52.202;0.154;2023-04-08T09:54:01;10.95;;;5.85;;
70406;SDS011;57821;52.202;0.154;2023-04-08T09:57:00;11.13;;;5.60;;
70406;SDS011;57821;52.202;0.154;2023-04-08T09:59:57;11.68;;;5.22;;
70406;SDS011;57821;52.202;0.154;2023-04-08T10:03:18;9.43;;;5.75;;
70406;SDS011;57821;52.202;0.154;2023-04-08T10:06:08;13.55;;;6.28;;
70406;SDS011;57821;52.202;0.154;2023-04-08T10:08:56;12.10;;;6.07;;
70406;SDS011;57821;52.202;0.154;2023-04-08T10:11:43;8.82;;;3.90;;
70406;SDS011;57821;52.202;0.154;2023-04-08T10:14:30;9.27;;;4.43;;
70406;SDS011;57821;52.202;0.154;2023-04-08T10:17:26;9.68;;;3.90;;
70406;SDS011;57821;52.202;0.154;2023-04-08T10:23:51;8.60;;;4.53;;
70406;SDS011;57821;52.202;0.154;2023-04-08T10:26:40;8.20;;;4.45;;
70406;SDS011;57821;52.202;0.154;2023-04-08T10:32:26;13.13;;;4.85;;
70406;SDS011;57821;52.202;0.154;2023-04-08T10:35:13;12.73;;;5.07;;
70406;SDS011;57821;52.202;0.154;2023-04-08T10:38:00;9.38;;;4.40;;
70406;SDS011;57821;52.202;0.154;2023-04-08T10:40:48;8.98;;;4.85;;
70406;SDS011;57821;52.202;0.154;2023-04-08T10:43:35;7.57;;;3.92;;
70406;SDS011;57821;52.202;0.154;2023-04-08T10:46:22;8.63;;;3.95;;
70406;SDS011;57821;52.202;0.154;2023-04-08T10:49:13;9.00;;;3.60;;
70406;SDS011;57821;52.202;0.154;2023-04-08T10:52:05;10.80;;;4.15;;
70406;SDS011;57821;52.202;0.154;2023-04-08T10:57:39;7.65;;;3.95;;
70406;SDS011;57821;52.202;0.154;2023-04-08T11:00:31;11.18;;;4.28;;
70406;SDS011;57821;52.202;0.154;2023-04-08T11:03:18;6.85;;;4.13;;
70406;SDS011;57821;52.202;0.154;2023-04-08T11:06:05;8.32;;;3.00;;
70406;SDS011;57821;52.202;0.154;2023-04-08T11:08:53;8.50;;;3.30;;
70406;SDS011;57821;52.202;0.154;2023-04-08T11:11:43;8.48;;;3.55;;
70406;SDS011;57821;52.202;0.154;2023-04-08T11:14:31;9.88;;;3.47;;
70406;SDS011;57821;52.202;0.154;2023-04-08T11:17:18;9.80;;;3.88;;
70406;SDS011;57821;52.202;0.154;2023-04-08T11:20:05;8.65;;;3.83;;
70406;SDS011;57821;52.202;0.154;2023-04-08T11:22:54;7.43;;;3.50;;
70406;SDS011;57821;52.202;0.154;2023-04-08T11:25:41;7.25;;;3.35;;
70406;SDS011;57821;52.202;0.154;2023-04-08T11:28:29;7.72;;;3.00;;
70406;SDS011;57821;52.202;0.154;2023-04-08T11:31:17;7.68;;;3.50;;
70406;SDS011;57821;52.202;0.154;2023-04-08T11:34:08;7.47;;;2.88;;
70406;SDS011;57821;52.202;0.154;2023-04-08T11:36:55;7.13;;;2.60;;
70406;SDS011;57821;52.202;0.154;2023-04-08T11:39:42;5.88;;;2.55;;
70406;SDS011;57821;52.202;0.154;2023-04-08T11:42:30;7.20;;;3.00;;
70406;SDS011;57821;52.202;0.154;2023-04-08T11:45:19;6.47;;;2.60;;
70406;SDS011;57821;52.202;0.154;2023-04-08T11:48:07;5.32;;;2.55;;
70406;SDS011;57821;52.202;0.154;2023-04-08T11:51:02;6.82;;;2.78;;
70406;SDS011;57821;52.202;0.154;2023-04-08T11:53:53;6.15;;;2.90;;
70406;SDS011;57821;52.202;0.154;2023-04-08T11:56:45;7.82;;;3.17;;
70406;SDS011;57821;52.202;0.154;2023-04-08T11:59:32;5.95;;;2.58;;
70406;SDS011;57821;52.202;0.154;2023-04-08T12:02:19;6.53;;;2.63;;
70406;SDS011;57821;52.202;0.154;2023-04-08T12:05:06;7.22;;;2.78;;
70406;SDS011;57821;52.202;0.154;2023-04-08T12:07:53;5.15;;;2.40;;
70406;SDS011;57821;52.202;0.154;2023-04-08T12:10:40;5.43;;;2.13;;
70406;SDS011;57821;52.202;0.154;2023-04-08T12:13:27;8.80;;;2.30;;
70406;SDS011;57821;52.202;0.154;2023-04-08T12:16:14;7.43;;;2.97;;
70406;SDS011;57821;52.202;0.154;2023-04-08T12:19:01;5.72;;;2.40;;
70406;SDS011;57821;52.202;0.154;2023-04-08T12:21:49;5.25;;;2.50;;
70406;SDS011;57821;52.202;0.154;2023-04-08T12:24:36;5.80;;;2.00;;
70406;SDS011;57821;52.202;0.154;2023-04-08T12:27:23;4.90;;;1.85;;
70406;SDS011;57821;52.202;0.154;2023-04-08T12:30:10;4.53;;;1.80;;
70406;SDS011;57821;52.202;0.154;2023-04-08T12:32:57;5.63;;;1.70;;
70406;SDS011;57821;52.202;0.154;2023-04-08T12:35:44;4.75;;;1.92;;
70406;SDS011;57821;52.202;0.154;2023-04-08T12:38:31;6.00;;;2.00;;
70406;SDS011;57821;52.202;0.154;2023-04-08T12:41:18;6.63;;;2.20;;
70406;SDS011;57821;52.202;0.154;2023-04-08T12:44:05;8.43;;;2.78;;
70406;SDS011;57821;52.202;0.154;2023-04-08T12:46:52;5.30;;;1.58;;
70406;SDS011;57821;52.202;0.154;2023-04-08T12:49:39;5.18;;;1.90;;
70406;SDS011;57821;52.202;0.154;2023-04-08T12:52:28;4.90;;;1.70;;
70406;SDS011;57821;52.202;0.154;2023-04-08T12:55:15;4.75;;;1.40;;
70406;SDS011;57821;52.202;0.154;2023-04-08T12:58:02;5.32;;;1.88;;
70406;SDS011;57821;52.202;0.154;2023-04-08T13:00:49;4.57;;;1.83;;
70406;SDS011;57821;52.202;0.154;2023-04-08T13:03:37;4.45;;;1.90;;
70406;SDS011;57821;52.202;0.154;2023-04-08T13:06:24;5.20;;;1.65;;
70406;SDS011;57821;52.202;0.154;2023-04-08T13:09:11;5.18;;;1.90;;
70406;SDS011;57821;52.202;0.154;2023-04-08T13:11:58;5.35;;;2.22;;
70406;SDS011;57821;52.202;0.154;2023-04-08T13:14:44;4.57;;;1.80;;
70406;SDS011;57821;52.202;0.154;2023-04-08T13:17:31;6.93;;;1.55;;
70406;SDS011;57821;52.202;0.154;2023-04-08T13:20:19;6.22;;;1.80;;
70406;SDS011;57821;52.202;0.154;2023-04-08T13:23:05;4.18;;;1.52;;
70406;SDS011;57821;52.202;0.154;2023-04-08T13:25:52;4.88;;;1.58;;
70406;SDS011;57821;52.202;0.154;2023-04-08T13:28:39;4.72;;;1.80;;
70406;SDS011;57821;52.202;0.154;2023-04-08T13:31:42;5.28;;;1.60;;
70406;SDS011;57821;52.202;0.154;2023-04-08T13:34:29;5.47;;;2.13;;
70406;SDS011;57821;52.202;0.154;2023-04-08T13:37:16;6.78;;;1.90;;
70406;SDS011;57821;52.202;0.154;2023-04-08T13:40:03;5.22;;;1.67;;
70406;SDS011;57821;52.202;0.154;2023-04-08T13:42:51;4.75;;;1.75;;
70406;SDS011;57821;52.202;0.154;2023-04-08T13:45:37;5.70;;;1.63;;
70406;SDS011;57821;52.202;0.154;2023-04-08T13:48:24;4.75;;;1.65;;
70406;SDS011;57821;52.202;0.154;2023-04-08T13:51:11;4.18;;;1.27;;
70406;SDS011;57821;52.202;0.154;2023-04-08T13:53:58;4.72;;;1.40;;
70406;SDS011;57821;52.202;0.154;2023-04-08T13:56:45;4.95;;;1.48;;
70406;SDS011;57821;52.202;0.154;2023-04-08T13:59:32;5.15;;;1.60;;
70406;SDS011;57821;52.202;0.154;2023-04-08T14:02:19;3.65;;;1.15;;
70406;SDS011;57821;52.202;0.154;2023-04-08T14:05:06;4.90;;;1.65;;
70406;SDS011;57821;52.202;0.154;2023-04-08T14:07:53;4.47;;;1.70;;
70406;SDS011;57821;52.202;0.154;2023-04-08T14:10:40;4.35;;;1.50;;
70406;SDS011;57821;52.202;0.154;2023-04-08T14:13:26;3.70;;;1.30;;
70406;SDS011;57821;52.202;0.154;2023-04-08T14:16:13;5.63;;;1.70;;
70406;SDS011;57821;52.202;0.154;2023-04-08T14:19:00;4.53;;;1.90;;
70406;SDS011;57821;52.202;0.154;2023-04-08T14:21:48;9.07;;;1.80;;
70406;SDS011;57821;52.202;0.154;2023-04-08T14:24:35;5.18;;;1.50;;
70406;SDS011;57821;52.202;0.154;2023-04-08T14:27:22;5.22;;;1.30;;
70406;SDS011;57821;52.202;0.154;2023-04-08T14:30:09;4.82;;;1.40;;
70406;SDS011;57821;52.202;0.154;2023-04-08T14:32:56;4.03;;;1.30;;
70406;SDS011;57821;52.202;0.154;2023-04-08T14:35:43;4.40;;;1.42;;
70406;SDS011;57821;52.202;0.154;2023-04-08T14:38:30;5.43;;;1.60;;
70406;SDS011;57821;52.202;0.154;2023-04-08T14:41:17;5.05;;;1.15;;
70406;SDS011;57821;52.202;0.154;2023-04-08T14:44:04;4.78;;;1.40;;
70406;SDS011;57821;52.202;0.154;2023-04-08T14:46:51;5.72;;;1.30;;
70406;SDS011;57821;52.202;0.154;2023-04-08T14:49:38;5.95;;;1.50;;
70406;SDS011;57821;52.202;0.154;2023-04-08T14:52:25;4.97;;;1.65;;
70406;SDS011;57821;52.202;0.154;2023-04-08T14:55:12;4.80;;;1.60;;
70406;SDS011;57821;52.202;0.154;2023-04-08T14:57:59;5.22;;;1.60;;
70406;SDS011;57821;52.202;0.154;2023-04-08T15:00:46;5.18;;;1.42;;
70406;SDS011;57821;52.202;0.154;2023-04-08T15:03:33;4.78;;;1.55;;
70406;SDS011;57821;52.202;0.154;2023-04-08T15:06:21;4.20;;;1.58;;
70406;SDS011;57821;52.202;0.154;2023-04-08T15:09:08;5.82;;;1.50;;
70406;SDS011;57821;52.202;0.154;2023-04-08T15:11:55;5.30;;;1.80;;
70406;SDS011;57821;52.202;0.154;2023-04-08T15:14:41;6.82;;;2.00;;
70406;SDS011;57821;52.202;0.154;2023-04-08T15:17:28;4.43;;;1.40;;
70406;SDS011;57821;52.202;0.154;2023-04-08T15:20:16;5.07;;;1.67;;
70406;SDS011;57821;52.202;0.154;2023-04-08T15:23:02;5.50;;;2.00;;
70406;SDS011;57821;52.202;0.154;2023-04-08T15:25:49;4.22;;;1.48;;
70406;SDS011;57821;52.202;0.154;2023-04-08T15:28:36;6.95;;;1.83;;
70406;SDS011;57821;52.202;0.154;2023-04-08T15:31:23;4.13;;;1.52;;
70406;SDS011;57821;52.202;0.154;2023-04-08T15:34:10;4.03;;;1.50;;
70406;SDS011;57821;52.202;0.154;2023-04-08T15:36:57;4.78;;;1.88;;
70406;SDS011;57821;52.202;0.154;2023-04-08T15:39:44;4.88;;;1.60;;
70406;SDS011;57821;52.202;0.154;2023-04-08T15:42:31;6.20;;;1.90;;
70406;SDS011;57821;52.202;0.154;2023-04-08T15:45:18;4.40;;;1.45;;
70406;SDS011;57821;52.202;0.154;2023-04-08T15:48:05;6.18;;;1.75;;
70406;SDS011;57821;52.202;0.154;2023-04-08T15:50:52;4.68;;;1.80;;
70406;SDS011;57821;52.202;0.154;2023-04-08T15:53:39;7.07;;;2.40;;
70406;SDS011;57821;52.202;0.154;2023-04-08T15:56:27;5.90;;;3.00;;
70406;SDS011;57821;52.202;0.154;2023-04-08T15:59:13;5.45;;;2.72;;
70406;SDS011;57821;52.202;0.154;2023-04-08T16:02:00;6.10;;;2.85;;
70406;SDS011;57821;52.202;0.154;2023-04-08T16:04:47;7.43;;;2.92;;
70406;SDS011;57821;52.202;0.154;2023-04-08T16:07:35;4.78;;;2.67;;
70406;SDS011;57821;52.202;0.154;2023-04-08T16:10:22;4.80;;;2.38;;
70406;SDS011;57821;52.202;0.154;2023-04-08T16:13:08;9.07;;;2.80;;
70406;SDS011;57821;52.202;0.154;2023-04-08T16:15:56;6.43;;;2.58;;
70406;SDS011;57821;52.202;0.154;2023-04-08T16:18:43;7.88;;;2.88;;
70406;SDS011;57821;52.202;0.154;2023-04-08T16:21:33;4.13;;;1.88;;
70406;SDS011;57821;52.202;0.154;2023-04-08T16:24:20;11.40;;;3.03;;
70406;SDS011;57821;52.202;0.154;2023-04-08T16:27:07;12.68;;;2.40;;
70406;SDS011;57821;52.202;0.154;2023-04-08T16:29:54;8.13;;;2.65;;
70406;SDS011;57821;52.202;0.154;2023-04-08T16:32:41;6.13;;;2.55;;
70406;SDS011;57821;52.202;0.154;2023-04-08T16:35:28;11.25;;;2.83;;
70406;SDS011;57821;52.202;0.154;2023-04-08T16:38:15;4.88;;;2.60;;
70406;SDS011;57821;52.202;0.154;2023-04-08T16:41:02;7.30;;;2.60;;
70406;SDS011;57821;52.202;0.154;2023-04-08T16:43:49;5.50;;;2.67;;
70406;SDS011;57821;52.202;0.154;2023-04-08T16:46:37;10.10;;;2.97;;
70406;SDS011;57821;52.202;0.154;2023-04-08T16:49:23;8.90;;;2.40;;
70406;SDS011;57821;52.202;0.154;2023-04-08T16:52:10;8.30;;;2.70;;
70406;SDS011;57821;52.202;0.154;2023-04-08T16:54:57;5.13;;;2.33;;